createdAt,value
2024-03-02T00:01:45.568Z,3.75
2024-03-02T00:03:47.416Z,3.53
2024-03-02T00:05:55.404Z,3.83
2024-03-02T00:07:59.042Z,3.67
2024-03-02T00:10:01.798Z,3.72
2024-03-02T00:12:04.279Z,3.67
2024-03-02T00:14:06.162Z,3.70
2024-03-02T00:16:08.361Z,3.67
2024-03-02T00:18:13.524Z,3.70
2024-03-02T00:20:20.163Z,3.67
2024-03-02T00:22:22.002Z,3.80
2024-03-02T00:24:34.369Z,4.40
2024-03-02T00:26:36.119Z,4.13
2024-03-02T00:28:38.806Z,4.30
2024-03-02T00:30:46.458Z,3.78
2024-03-02T00:32:48.449Z,4.82
2024-03-02T00:34:50.153Z,4.05
2024-03-02T00:36:52.423Z,4.43
2024-03-02T00:38:56.065Z,4.10
2024-03-02T00:41:00.432Z,4.57
2024-03-02T00:43:03.496Z,4.22
2024-03-02T00:45:09.208Z,4.43
2024-03-02T00:47:10.909Z,4.13
2024-03-02T00:49:12.503Z,3.75
2024-03-02T00:51:14.147Z,3.70
2024-03-02T00:53:15.798Z,4.20
2024-03-02T00:55:17.698Z,4.10
2024-03-02T00:57:19.481Z,4.03
2024-03-02T00:59:21.199Z,4.05
2024-03-02T01:01:23.827Z,4.78
2024-03-02T01:03:25.721Z,4.70
2024-03-02T01:05:27.578Z,4.47
2024-03-02T01:07:29.217Z,4.10
2024-03-02T01:09:30.917Z,4.60
2024-03-02T01:11:33.149Z,3.50
2024-03-02T01:13:35.233Z,4.55
2024-03-02T01:15:37.005Z,3.78
2024-03-02T01:17:39.051Z,4.47
2024-03-02T01:19:43.216Z,3.63
2024-03-02T01:21:45.088Z,4.50
2024-03-02T01:23:46.798Z,3.97
2024-03-02T01:25:49.057Z,3.78
2024-03-02T01:27:50.892Z,4.10
2024-03-02T01:29:52.749Z,3.92
2024-03-02T01:31:54.995Z,4.07
2024-03-02T01:33:57.339Z,4.68
2024-03-02T01:35:59.113Z,4.13
2024-03-02T01:38:00.785Z,4.78
2024-03-02T01:40:02.678Z,4.28
2024-03-02T01:42:04.520Z,4.32
2024-03-02T01:44:06.446Z,4.68
2024-03-02T01:46:08.341Z,5.05
2024-03-02T01:48:10.334Z,4.10
2024-03-02T01:50:15.386Z,4.63
2024-03-02T01:52:17.042Z,3.30
2024-03-02T01:54:18.770Z,4.45
2024-03-02T01:56:20.777Z,4.38
2024-03-02T01:58:22.440Z,4.68
2024-03-02T02:00:26.499Z,4.97
2024-03-02T02:02:28.568Z,4.30
2024-03-02T02:04:30.210Z,4.72
2024-03-02T02:06:31.946Z,4.53
2024-03-02T02:08:33.873Z,4.68
2024-03-02T02:10:35.589Z,4.70
2024-03-02T02:12:37.867Z,5.20
2024-03-02T02:14:41.240Z,5.15
2024-03-02T02:16:42.955Z,4.90
2024-03-02T02:18:44.879Z,4.70
2024-03-02T02:20:46.811Z,5.57
2024-03-02T02:22:57.566Z,5.40
2024-03-02T02:24:59.257Z,5.20
2024-03-02T02:27:00.937Z,4.53
2024-03-02T02:29:02.621Z,4.40
2024-03-02T02:31:04.659Z,4.40
2024-03-02T02:33:06.412Z,4.65
2024-03-02T02:35:08.377Z,4.60
2024-03-02T02:37:10.385Z,4.47
2024-03-02T02:39:18.201Z,4.38
2024-03-02T02:41:19.891Z,4.30
2024-03-02T02:43:21.779Z,4.57
2024-03-02T02:45:23.639Z,4.75
2024-03-02T02:47:25.382Z,4.63
2024-03-02T02:49:27.045Z,4.30
2024-03-02T02:51:28.802Z,4.38
2024-03-02T02:53:30.746Z,4.35
2024-03-02T02:55:32.950Z,4.68
2024-03-02T02:57:40.107Z,4.55
2024-03-02T02:59:41.777Z,4.00
2024-03-02T03:01:43.479Z,3.97
2024-03-02T03:03:46.141Z,4.30
2024-03-02T03:05:47.890Z,4.28
2024-03-02T03:07:52.573Z,3.88
2024-03-02T03:09:54.621Z,3.78
2024-03-02T03:11:56.363Z,4.32
2024-03-02T03:13:58.248Z,4.05
2024-03-02T03:16:00.092Z,3.63
2024-03-02T03:18:01.894Z,4.32
2024-03-02T03:20:05.503Z,4.10
2024-03-02T03:22:07.254Z,4.07
2024-03-02T03:24:09.437Z,4.22
2024-03-02T03:26:11.165Z,4.07
2024-03-02T03:28:12.835Z,4.38
2024-03-02T03:30:15.098Z,4.05
2024-03-02T03:32:18.091Z,4.05
2024-03-02T03:34:19.741Z,3.80
2024-03-02T03:36:21.447Z,4.28
2024-03-02T03:38:23.261Z,3.95
2024-03-02T03:40:24.923Z,4.50
2024-03-02T03:42:26.671Z,4.57
2024-03-02T03:44:28.371Z,4.10
2024-03-02T03:46:30.065Z,4.00
2024-03-02T03:48:32.176Z,3.65
2024-03-02T03:50:33.948Z,4.07
2024-03-02T03:52:35.714Z,4.30
2024-03-02T03:54:39.761Z,4.15
2024-03-02T03:56:41.382Z,4.32
2024-03-02T03:58:43.058Z,4.38
2024-03-02T04:00:44.971Z,4.32
2024-03-02T04:02:46.901Z,5.20
2024-03-02T04:04:48.765Z,4.43
2024-03-02T04:06:50.756Z,3.70
2024-03-02T04:08:52.853Z,4.40
2024-03-02T04:10:54.785Z,3.95
2024-03-02T04:12:56.641Z,4.82
2024-03-02T04:14:58.307Z,4.78
2024-03-02T04:16:59.996Z,3.75
2024-03-02T04:19:01.827Z,4.13
2024-03-02T04:21:03.575Z,5.30
2024-03-02T04:23:05.350Z,4.30
2024-03-02T04:25:08.731Z,4.40
2024-03-02T04:27:10.496Z,4.85
2024-03-02T04:29:12.275Z,4.20
2024-03-02T04:31:13.983Z,4.68
2024-03-02T04:33:15.957Z,4.38
2024-03-02T04:35:17.931Z,4.50
2024-03-02T04:37:19.609Z,4.13
2024-03-02T04:39:21.322Z,5.50
2024-03-02T04:41:23.041Z,5.05
2024-03-02T04:43:24.691Z,5.38
2024-03-02T04:45:26.405Z,4.80
2024-03-02T04:47:28.175Z,4.72
2024-03-02T04:49:30.025Z,4.50
2024-03-02T04:51:31.830Z,4.30
2024-03-02T04:53:33.574Z,4.85
2024-03-02T04:55:35.246Z,4.75
2024-03-02T04:57:37.326Z,4.95
2024-03-02T04:59:38.979Z,3.53
2024-03-02T05:01:40.706Z,4.90
2024-03-02T05:03:42.399Z,5.32
2024-03-02T05:05:44.391Z,4.80
2024-03-02T05:07:46.256Z,7.05
2024-03-02T05:09:49.662Z,6.03
2024-03-02T05:12:10.044Z,6.93
2024-03-02T05:14:12.041Z,6.40
2024-03-02T05:16:13.749Z,6.40
2024-03-02T05:18:15.731Z,8.70
2024-03-02T05:20:18.264Z,7.88
2024-03-02T05:22:19.918Z,7.72
2024-03-02T05:24:21.628Z,8.27
2024-03-02T05:26:23.536Z,7.65
2024-03-02T05:28:25.309Z,7.18
2024-03-02T05:30:27.647Z,7.72
2024-03-02T05:32:29.416Z,6.05
2024-03-02T05:34:31.987Z,6.97
2024-03-02T05:36:33.670Z,6.50
2024-03-02T05:38:38.678Z,6.93
2024-03-02T05:40:40.319Z,6.18
2024-03-02T05:42:42.868Z,5.65
2024-03-02T05:44:44.656Z,6.10
2024-03-02T05:46:47.125Z,5.50
2024-03-02T05:48:49.064Z,5.32
2024-03-02T05:50:51.058Z,5.30
2024-03-02T05:52:52.754Z,5.63
2024-03-02T05:54:54.612Z,5.18
2024-03-02T05:56:56.321Z,5.28
2024-03-02T05:59:17.722Z,4.90
2024-03-02T06:01:19.859Z,4.53
2024-03-02T06:03:21.991Z,4.75
2024-03-02T06:05:23.716Z,6.55
2024-03-02T06:07:25.379Z,5.00
2024-03-02T06:09:27.739Z,5.13
2024-03-02T06:11:29.841Z,4.07
2024-03-02T06:13:31.538Z,5.28
2024-03-02T06:15:34.197Z,4.65
2024-03-02T06:17:38.780Z,5.13
2024-03-02T06:19:40.590Z,3.38
2024-03-02T06:21:42.469Z,4.63
2024-03-02T06:23:44.153Z,4.82
2024-03-02T06:25:45.874Z,4.05
2024-03-02T06:27:47.626Z,4.57
2024-03-02T06:29:49.865Z,4.25
2024-03-02T06:31:54.852Z,4.28
2024-03-02T06:33:56.861Z,4.75
2024-03-02T06:35:58.593Z,5.10
2024-03-02T06:38:00.284Z,3.85
2024-03-02T06:40:02.188Z,4.60
2024-03-02T06:42:04.415Z,4.30
2024-03-02T06:44:08.114Z,4.45
2024-03-02T06:46:10.941Z,4.53
2024-03-02T06:48:12.650Z,4.03
2024-03-02T06:50:14.561Z,5.00
2024-03-02T06:52:16.198Z,3.97
2024-03-02T06:54:17.897Z,3.47
2024-03-02T06:56:19.647Z,3.88
2024-03-02T06:58:21.325Z,3.97
2024-03-02T07:00:23.047Z,4.10
2024-03-02T07:02:25.289Z,3.10
2024-03-02T07:04:27.094Z,4.15
2024-03-02T07:06:28.751Z,2.97
2024-03-02T07:08:30.569Z,4.40
2024-03-02T07:10:32.225Z,3.53
2024-03-02T07:12:34.573Z,3.47
2024-03-02T07:14:55.152Z,3.90
2024-03-02T07:16:56.824Z,4.40
2024-03-02T07:18:58.827Z,4.20
2024-03-02T07:21:02.573Z,3.80
2024-03-02T07:23:04.500Z,4.35
2024-03-02T07:25:08.751Z,4.05
2024-03-02T07:27:11.494Z,2.58
2024-03-02T07:29:13.700Z,3.22
2024-03-02T07:31:15.371Z,4.85
2024-03-02T07:33:18.153Z,4.07
2024-03-02T07:35:19.840Z,4.07
2024-03-02T07:37:21.844Z,4.00
2024-03-02T07:39:23.932Z,3.42
2024-03-02T07:41:25.732Z,1.90
2024-03-02T07:43:27.879Z,4.40
2024-03-02T07:45:29.715Z,4.45
2024-03-02T07:47:31.387Z,4.40
2024-03-02T07:49:33.383Z,4.80
2024-03-02T07:51:35.069Z,4.60
2024-03-02T07:53:37.723Z,4.30
2024-03-02T07:55:39.480Z,4.70
2024-03-02T07:57:42.071Z,4.65
2024-03-02T07:59:44.372Z,4.57
2024-03-02T08:01:46.203Z,4.70
2024-03-02T08:03:49.665Z,3.70
2024-03-02T08:05:51.409Z,4.82
2024-03-02T08:07:54.604Z,4.13
2024-03-02T08:09:56.693Z,3.63
2024-03-02T08:11:59.537Z,3.60
2024-03-02T08:14:01.232Z,3.97
2024-03-02T08:16:04.711Z,3.90
2024-03-02T08:18:06.847Z,4.18
2024-03-02T08:20:09.439Z,4.10
2024-03-02T08:22:11.799Z,3.72
2024-03-02T08:24:13.505Z,3.65
2024-03-02T08:26:15.228Z,3.90
2024-03-02T08:28:17.260Z,3.78
2024-03-02T08:30:19.546Z,3.58
2024-03-02T08:32:21.551Z,3.47
2024-03-02T08:34:23.269Z,3.10
2024-03-02T08:36:25.186Z,3.72
2024-03-02T08:38:27.399Z,4.00
2024-03-02T08:40:30.025Z,3.70
2024-03-02T08:42:31.706Z,3.40
2024-03-02T08:44:34.683Z,3.20
2024-03-02T08:46:36.638Z,2.90
2024-03-02T08:48:38.346Z,3.17
2024-03-02T08:50:40.103Z,2.80
2024-03-02T08:52:41.833Z,2.80
2024-03-02T08:54:43.565Z,3.00
2024-03-02T08:56:45.525Z,3.05
2024-03-02T08:58:47.521Z,3.80
2024-03-02T09:00:49.487Z,3.15
2024-03-02T09:02:51.315Z,3.67
2024-03-02T09:04:53.376Z,3.88
2024-03-02T09:06:55.145Z,3.58
2024-03-02T09:08:57.070Z,4.10
2024-03-02T09:10:58.824Z,4.00
2024-03-02T09:13:01.022Z,3.28
2024-03-02T09:15:07.659Z,3.78
2024-03-02T09:17:12.266Z,3.90
2024-03-02T09:19:14.010Z,3.40
2024-03-02T09:21:16.642Z,4.18
2024-03-02T09:23:18.302Z,3.63
2024-03-02T09:25:19.905Z,3.50
2024-03-02T09:27:22.039Z,3.90
2024-03-02T09:29:23.866Z,3.40
2024-03-02T09:31:25.602Z,3.30
2024-03-02T09:33:27.798Z,2.80
2024-03-02T09:35:30.139Z,2.60
2024-03-02T09:37:31.965Z,3.05
2024-03-02T09:39:33.897Z,3.25
2024-03-02T09:41:36.069Z,2.85
2024-03-02T09:43:37.827Z,2.90
2024-03-02T09:45:39.678Z,3.03
2024-03-02T09:47:41.354Z,2.78
2024-03-02T09:49:43.033Z,3.05
2024-03-02T09:51:51.281Z,3.30
2024-03-02T09:53:58.193Z,3.13
2024-03-02T09:56:02.076Z,2.80
2024-03-02T09:58:04.752Z,2.65
2024-03-02T10:00:07.251Z,2.72
2024-03-02T10:02:08.957Z,2.72
2024-03-02T10:04:11.292Z,2.70
2024-03-02T10:06:26.478Z,2.60
2024-03-02T10:08:41.579Z,2.50
2024-03-02T10:10:44.549Z,2.42
2024-03-02T10:12:46.322Z,2.20
2024-03-02T10:14:50.059Z,2.53
2024-03-02T10:16:51.734Z,2.70
2024-03-02T10:18:53.776Z,2.35
2024-03-02T10:21:14.662Z,2.60
2024-03-02T10:23:18.845Z,2.63
2024-03-02T10:25:43.247Z,2.60
2024-03-02T10:27:53.122Z,2.80
2024-03-02T10:29:55.110Z,2.20
2024-03-02T10:31:57.392Z,2.00
2024-03-02T10:33:59.445Z,2.58
2024-03-02T10:36:02.304Z,2.83
2024-03-02T10:38:06.825Z,2.03
2024-03-02T10:40:09.670Z,1.63
2024-03-02T10:42:12.724Z,1.50
2024-03-02T10:44:15.100Z,1.50
2024-03-02T10:46:20.893Z,1.50
2024-03-02T10:48:23.006Z,1.42
2024-03-02T10:50:26.034Z,1.40
2024-03-02T10:52:27.828Z,1.20
2024-03-02T10:54:37.837Z,1.20
2024-03-02T10:56:42.133Z,0.90
2024-03-02T10:58:44.041Z,1.38
2024-03-02T11:00:47.349Z,1.23
2024-03-02T11:02:53.012Z,0.95
2024-03-02T11:04:56.553Z,0.85
2024-03-02T11:07:05.645Z,1.02
2024-03-02T11:09:11.724Z,0.77
2024-03-02T11:11:21.677Z,0.68
2024-03-02T11:13:33.340Z,0.73
2024-03-02T11:15:37.116Z,0.90
2024-03-02T11:17:42.121Z,0.60
2024-03-02T11:19:45.348Z,0.80
2024-03-02T11:21:47.805Z,0.60
2024-03-02T11:23:49.824Z,0.70
2024-03-02T11:25:51.464Z,0.50
2024-03-02T11:27:56.195Z,0.68
2024-03-02T11:29:57.916Z,0.50
2024-03-02T11:32:03.062Z,0.43
2024-03-02T11:34:30.816Z,0.60
2024-03-02T11:36:32.670Z,0.60
2024-03-02T11:38:35.656Z,0.50
2024-03-02T11:40:37.699Z,0.50
2024-03-02T11:42:39.724Z,0.70
2024-03-02T11:44:44.874Z,0.80
2024-03-02T11:46:53.404Z,1.33
2024-03-02T11:48:55.628Z,0.80
2024-03-02T11:51:01.034Z,0.80
2024-03-02T11:53:03.709Z,1.20
2024-03-02T11:55:07.522Z,0.88
2024-03-02T11:57:10.065Z,0.63
2024-03-02T11:59:12.162Z,1.02
2024-03-02T12:01:14.825Z,1.15
2024-03-02T12:03:16.848Z,1.00
2024-03-02T12:05:18.651Z,1.10
2024-03-02T12:07:25.310Z,0.98
2024-03-02T12:09:31.166Z,0.90
2024-03-02T12:11:32.904Z,1.00
2024-03-02T12:13:35.451Z,1.52
2024-03-02T12:15:39.345Z,2.22
2024-03-02T12:17:41.487Z,1.80
2024-03-02T12:19:43.255Z,1.58
2024-03-02T12:21:45.332Z,5.00
2024-03-02T12:23:47.293Z,4.55
2024-03-02T12:25:49.262Z,3.13
2024-03-02T12:27:55.750Z,2.47
2024-03-02T12:29:57.630Z,6.15
2024-03-02T12:31:59.376Z,6.28
2024-03-02T12:34:01.472Z,7.72
2024-03-02T12:36:03.712Z,7.82
2024-03-02T12:38:06.078Z,1.60
2024-03-02T12:40:10.922Z,5.93
2024-03-02T12:42:12.817Z,8.15
2024-03-02T12:44:14.691Z,4.20
2024-03-02T12:46:17.063Z,3.30
2024-03-02T12:48:18.938Z,2.60
2024-03-02T12:50:21.673Z,2.45
2024-03-02T12:52:23.635Z,2.13
2024-03-02T12:54:26.882Z,1.50
2024-03-02T12:56:28.980Z,1.63
2024-03-02T12:58:32.427Z,1.25
2024-03-02T13:00:36.632Z,1.38
2024-03-02T13:04:59.585Z,1.38
2024-03-02T13:07:03.832Z,1.10
2024-03-02T13:09:05.853Z,0.73
2024-03-02T13:11:08.554Z,1.00
2024-03-02T13:13:10.503Z,1.00
2024-03-02T13:15:16.319Z,0.70
2024-03-02T13:17:20.729Z,1.00
2024-03-02T13:19:22.753Z,1.00
2024-03-02T13:21:24.551Z,0.93
2024-03-02T13:23:26.376Z,0.88
2024-03-02T13:25:29.557Z,0.90
2024-03-02T13:27:35.778Z,0.82
2024-03-02T13:29:38.478Z,0.80
2024-03-02T13:31:41.276Z,0.68
2024-03-02T13:33:43.075Z,0.90
2024-03-02T13:35:44.816Z,0.80
2024-03-02T13:37:46.485Z,1.10
2024-03-02T13:39:48.385Z,0.80
2024-03-02T13:41:54.170Z,0.80
2024-03-02T13:43:55.969Z,1.00
2024-03-02T13:45:57.848Z,0.93
2024-03-02T13:47:59.751Z,0.98
2024-03-02T13:50:01.483Z,0.90
2024-03-02T13:52:11.832Z,0.90
2024-03-02T13:56:15.480Z,0.80
2024-03-02T13:58:17.402Z,0.88
2024-03-02T14:00:20.218Z,0.70
2024-03-02T14:02:22.129Z,0.80
2024-03-02T14:04:24.003Z,0.93
2024-03-02T14:06:28.381Z,0.95
2024-03-02T14:08:30.224Z,1.00
2024-03-02T14:10:31.900Z,0.95
2024-03-02T14:12:33.845Z,1.10
2024-03-02T14:14:35.611Z,1.10
2024-03-02T14:16:37.326Z,1.02
2024-03-02T14:18:39.207Z,1.20
2024-03-02T14:20:42.681Z,0.88
2024-03-02T14:22:44.904Z,0.80
2024-03-02T14:24:46.709Z,1.10
2024-03-02T14:26:48.563Z,1.10
2024-03-02T14:28:51.768Z,0.80
2024-03-02T14:30:55.121Z,0.75
2024-03-02T14:32:56.918Z,0.82
2024-03-02T14:34:58.626Z,0.95
2024-03-02T14:37:00.982Z,1.00
2024-03-02T14:39:02.767Z,1.08
2024-03-02T14:41:05.280Z,1.05
2024-03-02T14:43:06.960Z,0.98
2024-03-02T14:45:08.977Z,0.95
2024-03-02T14:47:10.831Z,0.93
2024-03-02T14:49:13.189Z,1.20
2024-03-02T14:51:15.638Z,1.00
2024-03-02T14:53:17.699Z,0.90
2024-03-02T14:55:19.650Z,0.80
2024-03-02T14:57:21.799Z,0.93
2024-03-02T14:59:23.894Z,0.90
2024-03-02T15:01:26.152Z,0.90
2024-03-02T15:03:27.954Z,0.90
2024-03-02T15:05:29.682Z,1.10
2024-03-02T15:07:31.376Z,0.90
2024-03-02T15:09:35.069Z,0.95
2024-03-02T15:11:37.078Z,0.90
2024-03-02T15:13:39.062Z,1.00
2024-03-02T15:15:40.946Z,1.40
2024-03-02T15:17:43.097Z,1.85
2024-03-02T15:19:45.838Z,1.27
2024-03-02T15:21:47.517Z,6.47
2024-03-02T15:23:49.243Z,10.02
2024-03-02T15:25:51.000Z,8.82
2024-03-02T15:27:52.818Z,5.25
2024-03-02T15:29:56.547Z,6.35
2024-03-02T15:31:58.963Z,11.85
2024-03-02T15:34:04.048Z,12.23
2024-03-02T15:36:06.497Z,18.02
2024-03-02T15:38:17.959Z,16.85
2024-03-02T15:40:48.415Z,19.65
2024-03-02T15:42:50.223Z,9.88
2024-03-02T15:44:51.936Z,6.88
2024-03-02T15:46:54.010Z,7.10
2024-03-02T15:48:56.516Z,5.03
2024-03-02T15:51:00.939Z,2.60
2024-03-02T15:53:05.718Z,2.28
2024-03-02T15:55:08.077Z,1.83
2024-03-02T15:57:09.879Z,5.35
2024-03-02T15:59:11.611Z,3.15
2024-03-02T16:01:14.368Z,4.63
2024-03-02T16:03:16.064Z,4.40
2024-03-02T16:05:18.425Z,4.07
2024-03-02T16:07:20.127Z,1.40
2024-03-02T16:09:21.962Z,1.27
2024-03-02T16:11:23.942Z,3.40
2024-03-02T16:13:25.711Z,5.18
2024-03-02T16:15:29.643Z,5.57
2024-03-02T16:17:31.491Z,3.03
2024-03-02T16:19:33.734Z,3.72
2024-03-02T19:15:13.250Z,4.80
2024-03-02T19:17:15.077Z,6.95
2024-03-02T19:19:16.995Z,4.55
2024-03-02T19:21:18.746Z,4.97
2024-03-02T19:23:25.730Z,6.93
2024-03-02T19:25:33.737Z,5.93
2024-03-02T19:27:35.509Z,5.13
2024-03-02T19:29:37.326Z,7.57
2024-03-02T19:31:39.230Z,5.82
2024-03-02T19:33:41.401Z,5.78
2024-03-02T19:35:43.490Z,7.47
2024-03-02T19:37:45.227Z,6.50
2024-03-02T19:39:47.198Z,6.72
2024-03-02T19:41:49.177Z,7.15
2024-03-02T19:43:50.993Z,8.27
2024-03-02T19:45:52.931Z,7.30
2024-03-02T19:47:54.753Z,6.45
2024-03-02T19:49:56.549Z,6.97
2024-03-02T19:51:58.400Z,7.03
2024-03-02T19:54:00.784Z,6.72
2024-03-02T19:56:02.762Z,8.57
2024-03-02T19:58:05.259Z,8.40
2024-03-02T20:00:08.057Z,7.97
2024-03-02T20:02:15.336Z,8.05
2024-03-02T20:04:25.287Z,9.10
2024-03-02T20:06:27.045Z,9.50
2024-03-02T20:08:30.416Z,9.23
2024-03-02T20:10:32.575Z,9.95
2024-03-02T20:12:34.744Z,10.73
2024-03-02T20:14:37.385Z,10.88
2024-03-02T20:16:46.638Z,10.38
2024-03-02T20:18:48.411Z,10.15
2024-03-02T20:20:50.174Z,9.45
2024-03-02T20:22:51.874Z,10.68
2024-03-02T20:24:53.634Z,9.63
2024-03-02T20:26:56.228Z,10.57
2024-03-02T20:28:58.384Z,10.77
2024-03-02T20:31:01.354Z,9.70
2024-03-02T20:33:03.200Z,10.40
2024-03-02T20:35:05.249Z,10.20
2024-03-02T20:37:07.443Z,9.70
2024-03-02T20:39:09.724Z,10.32
2024-03-02T20:41:18.671Z,9.23
2024-03-02T20:43:20.448Z,9.48
2024-03-02T20:45:22.250Z,9.88
2024-03-02T20:47:24.303Z,10.07
2024-03-02T20:49:27.403Z,10.27
2024-03-02T20:51:32.626Z,9.48
2024-03-02T20:53:34.646Z,9.63
2024-03-02T20:55:37.403Z,9.55
2024-03-02T20:57:40.829Z,9.15
2024-03-02T20:59:42.661Z,9.32
2024-03-02T21:01:45.700Z,9.38
2024-03-02T21:03:48.366Z,9.43
2024-03-02T21:05:50.520Z,11.57
2024-03-02T21:07:52.350Z,10.82
2024-03-02T21:09:55.321Z,10.25
2024-03-02T21:11:57.318Z,9.98
2024-03-02T21:14:00.126Z,8.88
2024-03-02T21:16:01.938Z,10.10
2024-03-02T21:18:04.190Z,9.70
2024-03-02T21:20:10.165Z,9.52
2024-03-02T21:22:12.003Z,9.80
2024-03-02T21:24:14.943Z,11.70
2024-03-02T21:26:16.679Z,11.00
2024-03-02T21:28:18.543Z,10.68
2024-03-02T21:30:20.769Z,9.73
2024-03-02T21:32:22.607Z,9.88
2024-03-02T21:34:24.477Z,10.25
2024-03-02T21:36:26.232Z,9.73
2024-03-02T21:38:27.909Z,10.18
2024-03-02T21:40:33.265Z,10.18
2024-03-02T21:42:35.194Z,10.00
2024-03-02T21:44:37.011Z,10.50
2024-03-02T21:46:39.647Z,9.05
2024-03-02T21:48:41.360Z,9.45
2024-03-02T21:50:43.173Z,10.25
2024-03-02T21:52:46.486Z,10.15
2024-03-02T21:54:48.733Z,9.95
2024-03-02T21:56:52.402Z,10.70
2024-03-02T21:58:54.465Z,10.60
2024-03-02T22:00:56.259Z,10.75
2024-03-02T22:02:59.543Z,10.93
2024-03-02T22:05:01.572Z,10.10
2024-03-02T22:07:03.993Z,10.43
2024-03-02T22:09:07.124Z,11.40
2024-03-02T22:11:08.938Z,10.93
2024-03-02T22:13:10.888Z,10.40
2024-03-02T22:15:12.700Z,11.63
2024-03-02T22:17:14.525Z,11.23
2024-03-02T22:19:16.305Z,10.68
2024-03-02T22:21:18.094Z,11.55
2024-03-02T22:23:19.882Z,12.00
2024-03-02T22:25:21.781Z,12.10
2024-03-02T22:27:23.594Z,12.55
2024-03-02T22:29:25.665Z,11.90
2024-03-02T22:31:27.759Z,13.40
2024-03-02T22:33:29.518Z,12.27
2024-03-02T22:35:31.571Z,11.73
2024-03-02T22:37:33.604Z,10.20
2024-03-02T22:39:35.342Z,10.93
2024-03-02T22:41:37.290Z,9.95
2024-03-02T22:43:39.325Z,10.10
2024-03-02T22:45:41.775Z,9.43
2024-03-02T22:47:43.610Z,10.13
2024-03-02T22:49:45.342Z,9.70
2024-03-02T22:51:47.492Z,9.57
2024-03-02T22:53:49.693Z,10.38
2024-03-02T22:55:51.426Z,9.48
2024-03-02T22:57:53.252Z,10.25
2024-03-02T22:59:56.208Z,10.88
2024-03-02T23:01:58.140Z,12.20
2024-03-02T23:04:00.079Z,12.70
2024-03-02T23:06:01.868Z,12.55
2024-03-02T23:08:03.692Z,10.82
2024-03-02T23:10:06.361Z,10.88
2024-03-02T23:12:08.439Z,12.15
2024-03-02T23:14:10.965Z,12.65
2024-03-02T23:16:12.772Z,14.93
2024-03-02T23:18:14.695Z,17.23
2024-03-02T23:20:16.507Z,13.45
2024-03-02T23:22:18.306Z,13.90
2024-03-02T23:24:20.505Z,13.45
2024-03-02T23:26:23.631Z,13.57
2024-03-02T23:28:25.380Z,10.30
2024-03-02T23:30:27.633Z,11.85
2024-03-02T23:32:29.606Z,11.43
2024-03-02T23:34:31.580Z,10.77
2024-03-02T23:36:33.594Z,9.77
2024-03-02T23:38:35.330Z,10.68
2024-03-02T23:40:56.932Z,10.90
2024-03-02T23:42:58.634Z,10.50
2024-03-02T23:45:00.500Z,11.48
2024-03-02T23:47:02.355Z,9.60
2024-03-02T23:49:04.352Z,10.95
2024-03-02T23:51:06.543Z,10.68
2024-03-02T23:53:08.193Z,12.13
2024-03-02T23:55:10.072Z,12.20
2024-03-02T23:57:12.104Z,13.45
2024-03-02T23:59:13.940Z,14.00
